Hovedside
METAR-TAF:

METAR-TAF

Lufthavner :

Pakse, Laos

breddegrad: 15-08-02N, lengdegrad: 105-46-55E, høyde over havet: 107 m

Gjeldene værobservasjon

Denne rapporten ble laget for 59 minutter siden, klokken 12:00 UTC
Vind 2 kt fra Sørøst
Temperatur 32°C
Luftfuktighet 71%
Trykk 1005 hPa
Sikt 10 km eller mer
Få skyer i en høyde av 2000 ft
Brutte skyer i en høyde av 20000 ft

METAR: VLPS 201200Z 14002KT 9999 FEW020 BKN200 32/26 Q1005 NOSIG

Tid: 19:59 (12:59 UTC)

Varsel

Denne rapporten ble laget for 1 time og 59 minutter siden, klokken 11:00 UTC
Varsel gyldig fra 20. klokken 12 UTC til 21. klokken 12 UTC
Vind 4 kt fra Sørøst
Sikt: 7000 m
Spredte skyer i en høyde av 2000 ft
Brutte skyer i en høyde av 5000 ft

TAF: VLPS 201100Z 2012/2112 14004KT 7000 SCT020 BKN050

Værobservasjoner og værvarsel for over 4000 flyplasser (METAR- og TAF-rapporter).

Tilgjengelige stasjoner er representert av de røde og gule prikkene på kartet.

Hold musepekeren over prikken for å se navnet på stasjonen.

Klikk så for å se værobservasjoner og -varsler.

For å forandre kartet kan du klikke på den grønne knappen med svart kryss for å zoome inn, på den grønne knappen med strek for å zoome ut, eller på de grønne pilene for å se tilstøtende kart.


METAR-TAF: